createdAt,value
2022-12-26T00:00:33.049Z,8.57
2022-12-26T00:01:37.968Z,5.97
2022-12-26T00:02:39.848Z,5.73
2022-12-26T00:03:41.770Z,6.57
2022-12-26T00:04:51.868Z,4.47
2022-12-26T00:05:55.201Z,8.63
2022-12-26T00:06:56.943Z,7.57
2022-12-26T00:08:23.111Z,6.73
2022-12-26T00:09:38.438Z,5.60
2022-12-26T00:10:56.509Z,8.93
2022-12-26T00:12:12.517Z,5.73
2022-12-26T00:13:39.581Z,5.77
2022-12-26T00:14:38.686Z,5.53
2022-12-26T00:15:41.272Z,6.37
2022-12-26T00:16:45.222Z,11.50
2022-12-26T00:17:46.962Z,4.47
2022-12-26T00:18:48.947Z,6.20
2022-12-26T00:19:50.660Z,4.63
2022-12-26T00:20:52.457Z,6.60
2022-12-26T00:21:54.291Z,7.50
2022-12-26T00:22:55.993Z,6.13
2022-12-26T00:23:59.724Z,4.83
2022-12-26T00:25:01.472Z,5.00
2022-12-26T00:26:05.462Z,6.43
2022-12-26T00:27:07.229Z,7.30
2022-12-26T00:28:09.004Z,7.03
2022-12-26T00:29:10.790Z,6.43
2022-12-26T00:30:12.748Z,5.87
2022-12-26T00:31:20.610Z,4.87
2022-12-26T00:32:22.330Z,5.87
2022-12-26T00:33:24.070Z,5.13
2022-12-26T00:34:25.868Z,4.43
2022-12-26T00:35:27.647Z,6.80
2022-12-26T00:36:32.148Z,4.23
2022-12-26T00:37:33.973Z,5.43
2022-12-26T00:38:37.121Z,6.97
2022-12-26T00:39:38.869Z,5.50
2022-12-26T00:40:43.395Z,4.83
2022-12-26T00:41:45.206Z,4.43
2022-12-26T00:42:46.914Z,6.13
2022-12-26T00:43:49.253Z,5.17
2022-12-26T00:44:51.321Z,7.03
2022-12-26T00:45:53.042Z,6.93
2022-12-26T00:46:54.910Z,7.77
2022-12-26T00:47:56.704Z,5.60
2022-12-26T00:48:58.433Z,6.47
2022-12-26T00:50:13.222Z,7.63
2022-12-26T00:51:17.182Z,4.83
2022-12-26T00:52:18.948Z,4.90
2022-12-26T00:53:21.888Z,4.93
2022-12-26T00:54:23.612Z,7.30
2022-12-26T00:55:25.280Z,8.33
2022-12-26T00:56:27.006Z,8.50
2022-12-26T00:57:28.719Z,5.07
2022-12-26T00:58:30.639Z,5.27
2022-12-26T00:59:32.409Z,5.70
2022-12-26T01:00:34.537Z,5.03
2022-12-26T01:01:36.318Z,7.23
2022-12-26T01:02:38.345Z,6.50
2022-12-26T01:03:40.529Z,4.93
2022-12-26T01:04:42.311Z,6.13
2022-12-26T01:05:49.670Z,7.37
2022-12-26T01:06:51.454Z,6.47
2022-12-26T01:08:21.886Z,8.23
2022-12-26T01:09:15.226Z,5.40
2022-12-26T01:10:17.435Z,6.70
2022-12-26T01:11:39.326Z,6.23
2022-12-26T01:12:41.092Z,6.40
2022-12-26T01:13:43.211Z,8.50
2022-12-26T01:14:45.039Z,7.60
2022-12-26T01:15:51.601Z,6.30
2022-12-26T01:16:53.580Z,5.30
2022-12-26T01:17:55.307Z,7.80
2022-12-26T01:18:57.040Z,9.60
2022-12-26T01:19:58.795Z,10.57
2022-12-26T01:21:06.803Z,11.37
2022-12-26T01:22:08.712Z,10.53
2022-12-26T01:23:10.436Z,12.90
2022-12-26T01:24:13.791Z,15.53
2022-12-26T01:25:15.652Z,14.13
2022-12-26T01:26:20.235Z,21.53
2022-12-26T01:27:23.774Z,12.77
2022-12-26T01:28:25.521Z,13.60
2022-12-26T01:29:27.256Z,11.43
2022-12-26T01:30:28.994Z,17.30
2022-12-26T01:31:30.794Z,16.37
2022-12-26T01:32:32.512Z,22.40
2022-12-26T01:33:34.330Z,19.30
2022-12-26T01:34:36.112Z,18.93
2022-12-26T01:35:37.854Z,19.47
2022-12-26T01:36:39.593Z,21.33
2022-12-26T01:37:41.423Z,21.73
2022-12-26T01:38:43.288Z,23.80
2022-12-26T01:39:45.065Z,27.03
2022-12-26T01:40:47.311Z,27.83
2022-12-26T01:41:49.520Z,27.60
2022-12-26T01:42:51.249Z,29.03
2022-12-26T01:44:07.647Z,26.40
2022-12-26T01:45:27.589Z,28.30
2022-12-26T01:46:36.115Z,27.23
2022-12-26T01:47:40.365Z,30.27
2022-12-26T01:48:42.155Z,24.27
2022-12-26T01:49:46.741Z,28.77
2022-12-26T01:51:02.363Z,31.33
2022-12-26T01:52:09.548Z,27.67
2022-12-26T01:53:32.447Z,27.17
2022-12-26T01:54:42.332Z,31.87
2022-12-26T01:55:49.899Z,27.60
2022-12-26T01:56:52.012Z,28.33
2022-12-26T01:57:58.449Z,25.10
2022-12-26T01:59:11.453Z,24.37
2022-12-26T02:00:13.920Z,23.60
2022-12-26T02:01:17.411Z,24.03
2022-12-26T02:02:21.621Z,25.00
2022-12-26T02:03:43.204Z,23.83
2022-12-26T02:05:07.676Z,24.37
2022-12-26T02:06:12.628Z,22.43
2022-12-26T02:07:14.398Z,22.87
2022-12-26T02:08:21.032Z,23.73
2022-12-26T02:09:23.213Z,21.63
2022-12-26T02:10:28.376Z,20.83
2022-12-26T02:11:45.229Z,20.00
2022-12-26T02:12:48.367Z,22.67
2022-12-26T02:13:50.183Z,19.03
2022-12-26T02:14:52.065Z,20.67
2022-12-26T02:15:53.793Z,22.40
2022-12-26T02:16:56.348Z,20.30
2022-12-26T02:17:58.282Z,20.17
2022-12-26T02:19:00.099Z,22.63
2022-12-26T02:20:19.640Z,17.37
2022-12-26T02:21:56.458Z,18.67
2022-12-26T02:23:25.603Z,18.07
2022-12-26T02:24:45.319Z,17.33
2022-12-26T02:25:56.540Z,21.50
2022-12-26T02:27:35.970Z,20.67
2022-12-26T02:29:01.737Z,17.77
2022-12-26T02:30:18.355Z,15.57
2022-12-26T02:31:45.747Z,22.13
2022-12-26T02:33:16.069Z,18.37
2022-12-26T02:34:28.906Z,16.90
2022-12-26T02:35:49.962Z,18.13
2022-12-26T02:37:03.557Z,16.23
2022-12-26T02:38:11.174Z,16.13
2022-12-26T02:39:44.932Z,15.20
2022-12-26T02:40:59.112Z,12.67
2022-12-26T02:42:22.863Z,16.10
2022-12-26T02:43:57.922Z,15.10
2022-12-26T02:45:27.761Z,17.23
2022-12-26T02:47:03.663Z,16.10
2022-12-26T02:48:24.884Z,13.53
2022-12-26T02:50:06.991Z,14.87
2022-12-26T02:51:55.657Z,13.60
2022-12-26T02:53:31.888Z,14.00
2022-12-26T02:55:07.801Z,15.07
2022-12-26T02:56:53.689Z,12.87
2022-12-26T02:58:39.369Z,13.77
2022-12-26T03:00:05.472Z,15.93
2022-12-26T03:01:45.626Z,14.07
2022-12-26T03:03:14.178Z,13.37
2022-12-26T03:04:39.119Z,11.70
2022-12-26T03:06:07.830Z,12.63
2022-12-26T03:07:40.814Z,11.40
2022-12-26T03:09:04.202Z,10.27
2022-12-26T03:10:38.959Z,8.33
2022-12-26T03:12:01.832Z,9.63
2022-12-26T03:13:12.582Z,11.53
2022-12-26T03:14:23.468Z,9.90
2022-12-26T03:15:29.520Z,9.53
2022-12-26T03:16:50.623Z,7.37
2022-12-26T03:18:05.903Z,9.93
2022-12-26T03:19:11.868Z,7.47
2022-12-26T03:20:36.131Z,10.70
2022-12-26T03:21:43.473Z,6.80
2022-12-26T03:23:06.413Z,8.17
2022-12-26T03:24:11.128Z,9.07
2022-12-26T03:25:54.669Z,7.63
2022-12-26T03:26:56.436Z,9.40
2022-12-26T03:27:58.437Z,6.77
2022-12-26T03:29:20.167Z,6.07
2022-12-26T03:30:40.646Z,5.77
2022-12-26T03:31:42.420Z,10.13
2022-12-26T03:32:44.825Z,7.97
2022-12-26T03:34:06.054Z,6.67
2022-12-26T03:35:13.312Z,10.20
2022-12-26T03:36:22.408Z,6.13
2022-12-26T03:37:51.868Z,8.27
2022-12-26T03:39:14.820Z,6.50
2022-12-26T03:40:41.099Z,6.10
2022-12-26T03:42:21.155Z,5.00
2022-12-26T03:44:02.810Z,6.47
2022-12-26T03:45:34.149Z,4.47
2022-12-26T03:47:52.348Z,6.80
2022-12-26T03:49:18.650Z,4.30
2022-12-26T03:50:53.736Z,6.47
2022-12-26T03:52:26.292Z,4.60
2022-12-26T03:54:11.118Z,3.90
2022-12-26T03:55:43.122Z,3.93
2022-12-26T03:57:12.970Z,5.90
2022-12-26T03:58:33.636Z,3.37
2022-12-26T04:00:12.780Z,4.17
2022-12-26T04:01:39.509Z,4.13
2022-12-26T04:03:02.810Z,4.87
2022-12-26T04:04:26.341Z,4.93
2022-12-26T04:05:46.736Z,6.47
2022-12-26T04:07:17.754Z,4.13
2022-12-26T04:08:45.804Z,9.07
2022-12-26T04:10:18.806Z,5.37
2022-12-26T04:11:41.111Z,5.30
2022-12-26T04:13:04.423Z,5.03
2022-12-26T04:14:36.508Z,7.77
2022-12-26T04:16:07.533Z,4.27
2022-12-26T04:17:40.991Z,5.00
2022-12-26T04:19:24.457Z,5.33
2022-12-26T04:20:57.369Z,4.47
2022-12-26T04:22:29.789Z,4.53
2022-12-26T04:24:02.561Z,4.60
2022-12-26T04:25:50.721Z,4.87
2022-12-26T04:27:15.416Z,6.00
2022-12-26T04:28:35.947Z,5.03
2022-12-26T04:29:56.340Z,5.60
2022-12-26T04:31:28.033Z,5.77
2022-12-26T04:32:59.458Z,5.77
2022-12-26T04:34:25.761Z,4.67
2022-12-26T04:36:05.134Z,5.57
2022-12-26T04:37:32.549Z,5.60
2022-12-26T04:38:59.021Z,6.87
2022-12-26T04:40:21.665Z,6.83
2022-12-26T04:41:44.385Z,7.83
2022-12-26T04:43:49.615Z,5.27
2022-12-26T04:44:30.349Z,7.67
2022-12-26T04:45:32.096Z,5.70
2022-12-26T04:46:37.963Z,7.37
2022-12-26T04:47:59.905Z,6.10
2022-12-26T04:49:24.161Z,6.47
2022-12-26T04:50:25.871Z,7.17
2022-12-26T04:51:27.547Z,5.83
2022-12-26T04:52:49.614Z,7.53
2022-12-26T04:53:51.505Z,6.30
2022-12-26T04:54:53.309Z,5.30
2022-12-26T04:55:55.192Z,7.17
2022-12-26T04:56:56.981Z,6.50
2022-12-26T04:57:59.439Z,5.80
2022-12-26T04:59:01.366Z,6.10
2022-12-26T05:00:04.664Z,7.33
2022-12-26T05:01:25.404Z,5.93
2022-12-26T05:02:45.954Z,5.80
2022-12-26T05:04:06.254Z,6.40
2022-12-26T05:05:28.448Z,8.03
2022-12-26T05:06:53.432Z,4.80
2022-12-26T05:08:13.648Z,5.27
2022-12-26T05:09:34.853Z,5.20
2022-12-26T05:10:36.623Z,5.50
2022-12-26T05:11:39.127Z,6.23
2022-12-26T05:12:41.147Z,6.43
2022-12-26T05:13:43.028Z,7.60
2022-12-26T05:14:44.827Z,5.77
2022-12-26T05:16:05.400Z,6.03
2022-12-26T05:17:26.431Z,7.27
2022-12-26T05:18:47.101Z,4.30
2022-12-26T05:20:07.662Z,6.00
2022-12-26T05:21:32.501Z,5.83
2022-12-26T05:22:56.614Z,7.63
2022-12-26T05:24:17.594Z,8.90
2022-12-26T05:25:42.329Z,6.63
2022-12-26T05:27:02.948Z,5.97
2022-12-26T05:28:23.509Z,5.70
2022-12-26T05:29:25.874Z,6.63
2022-12-26T05:30:27.596Z,4.00
2022-12-26T05:31:35.115Z,4.63
2022-12-26T05:32:56.787Z,3.87
2022-12-26T05:34:17.329Z,5.17
2022-12-26T05:35:19.548Z,6.23
2022-12-26T05:36:24.674Z,6.80
2022-12-26T05:37:26.379Z,5.93
2022-12-26T05:38:28.172Z,7.83
2022-12-26T05:39:29.935Z,5.00
2022-12-26T05:40:31.991Z,5.87
2022-12-26T05:41:34.122Z,4.93
2022-12-26T05:42:35.927Z,5.20
2022-12-26T05:43:37.670Z,8.00
2022-12-26T05:44:39.462Z,6.63
2022-12-26T05:45:41.349Z,4.10
2022-12-26T05:46:43.567Z,4.27
2022-12-26T05:47:50.012Z,4.10
2022-12-26T05:48:53.729Z,4.83
2022-12-26T05:49:55.411Z,4.60
2022-12-26T05:51:00.961Z,5.53
2022-12-26T05:52:02.886Z,4.53
2022-12-26T05:53:04.671Z,4.37
2022-12-26T05:54:06.453Z,5.87
2022-12-26T05:55:08.492Z,6.13
2022-12-26T05:56:13.564Z,5.87
2022-12-26T05:57:15.318Z,6.10
2022-12-26T05:58:17.036Z,8.23
2022-12-26T05:59:18.736Z,5.27
2022-12-26T06:00:20.557Z,5.43
2022-12-26T06:01:22.811Z,7.37
2022-12-26T06:02:24.671Z,7.13
2022-12-26T06:03:26.666Z,5.20
2022-12-26T06:04:30.086Z,4.80
2022-12-26T06:05:31.790Z,4.63
2022-12-26T06:06:33.482Z,5.37
2022-12-26T06:07:35.292Z,6.43
2022-12-26T06:08:37.420Z,6.57
2022-12-26T06:09:39.161Z,3.50
2022-12-26T06:10:40.878Z,4.37
2022-12-26T06:11:48.528Z,7.03
2022-12-26T06:12:50.770Z,4.67
2022-12-26T06:13:53.190Z,4.50
2022-12-26T06:14:55.232Z,4.93
2022-12-26T06:15:57.057Z,5.13
2022-12-26T06:16:58.869Z,5.30
2022-12-26T06:18:00.535Z,6.13
2022-12-26T06:19:02.360Z,5.13
2022-12-26T06:20:04.577Z,6.27
2022-12-26T06:21:12.364Z,5.13
2022-12-26T06:22:14.207Z,7.33
2022-12-26T06:23:15.970Z,4.43
2022-12-26T06:24:17.889Z,4.13
2022-12-26T06:25:19.693Z,5.37
2022-12-26T06:26:21.425Z,3.57
2022-12-26T06:27:23.287Z,5.63
2022-12-26T06:28:25.569Z,6.07
2022-12-26T06:29:27.315Z,3.87
2022-12-26T06:30:29.067Z,3.37
2022-12-26T06:31:31.094Z,4.30
2022-12-26T06:32:33.740Z,4.33
2022-12-26T06:33:35.947Z,4.17
2022-12-26T06:34:37.661Z,6.17
2022-12-26T06:35:39.467Z,3.50
2022-12-26T06:36:41.459Z,7.40
2022-12-26T06:37:43.246Z,6.67
2022-12-26T06:38:45.242Z,7.37
2022-12-26T06:39:46.971Z,4.53
2022-12-26T06:40:48.769Z,5.17
2022-12-26T06:41:50.853Z,6.10
2022-12-26T06:42:52.548Z,7.40
2022-12-26T06:43:55.782Z,4.83
2022-12-26T06:44:57.468Z,4.97
2022-12-26T06:46:00.867Z,4.93
2022-12-26T06:47:03.332Z,7.13
2022-12-26T06:48:05.375Z,7.50
2022-12-26T06:49:07.224Z,3.27
2022-12-26T06:50:09.397Z,5.73
2022-12-26T06:51:17.215Z,6.40
2022-12-26T06:52:18.953Z,5.00
2022-12-26T06:53:21.690Z,4.97
2022-12-26T06:54:23.352Z,6.10
2022-12-26T06:55:25.123Z,4.10
2022-12-26T06:56:27.784Z,4.40
2022-12-26T06:57:29.554Z,5.97
2022-12-26T06:58:31.286Z,6.37
2022-12-26T06:59:33.047Z,6.63
2022-12-26T07:00:34.857Z,4.53
2022-12-26T07:01:36.928Z,5.53
2022-12-26T07:02:38.927Z,5.70
2022-12-26T07:03:48.517Z,5.67
2022-12-26T07:04:52.353Z,5.27
2022-12-26T07:05:54.286Z,6.53
2022-12-26T07:06:55.988Z,4.47
2022-12-26T07:07:57.873Z,5.20
2022-12-26T07:09:09.902Z,5.17
2022-12-26T07:10:11.877Z,4.80
2022-12-26T07:11:15.905Z,6.80
2022-12-26T07:12:21.209Z,4.83
2022-12-26T07:13:23.085Z,8.07
2022-12-26T07:14:24.820Z,4.83
2022-12-26T07:15:26.565Z,6.60
2022-12-26T07:16:28.817Z,5.30
2022-12-26T07:17:30.582Z,5.77
2022-12-26T07:18:32.322Z,7.87
2022-12-26T07:19:34.172Z,11.93
2022-12-26T07:20:37.545Z,4.80
2022-12-26T07:21:40.942Z,8.67
2022-12-26T07:22:42.817Z,10.63
2022-12-26T07:23:44.538Z,4.33
2022-12-26T07:24:46.263Z,5.37
2022-12-26T07:25:48.839Z,6.65
2022-12-26T07:26:50.653Z,6.23
2022-12-26T07:27:55.746Z,6.27
2022-12-26T07:28:59.557Z,6.53
2022-12-26T07:30:01.310Z,10.00
2022-12-26T07:31:03.701Z,5.53
2022-12-26T07:32:06.241Z,5.80
2022-12-26T07:33:07.939Z,9.63
2022-12-26T07:34:09.772Z,7.27
2022-12-26T07:35:11.536Z,6.83
2022-12-26T07:36:13.239Z,6.37
2022-12-26T07:37:14.986Z,8.97
2022-12-26T07:38:16.667Z,10.60
2022-12-26T07:39:18.393Z,6.20
2022-12-26T07:40:20.189Z,7.60
2022-12-26T07:41:40.896Z,7.27
2022-12-26T07:42:42.678Z,8.27
2022-12-26T07:43:44.385Z,8.40
2022-12-26T07:44:46.101Z,8.40
2022-12-26T07:45:48.478Z,9.73
2022-12-26T07:46:50.524Z,8.77
2022-12-26T07:47:56.167Z,11.23
2022-12-26T07:48:58.418Z,8.03
2022-12-26T07:50:00.153Z,8.57
2022-12-26T07:51:02.492Z,8.23
2022-12-26T07:52:04.592Z,7.27
2022-12-26T07:53:06.339Z,8.47
2022-12-26T07:54:11.364Z,11.43
2022-12-26T07:55:13.633Z,8.43
2022-12-26T07:56:15.452Z,8.43
2022-12-26T07:57:46.958Z,6.63
2022-12-26T07:58:38.850Z,6.67
2022-12-26T07:59:40.637Z,10.50
2022-12-26T08:00:42.970Z,7.70
2022-12-26T08:01:45.163Z,6.50
2022-12-26T08:02:51.703Z,10.65
2022-12-26T08:03:53.709Z,8.93
2022-12-26T08:04:55.512Z,14.20
2022-12-26T08:05:58.102Z,10.33
2022-12-26T08:06:59.862Z,11.10
2022-12-26T08:08:02.468Z,11.00
2022-12-26T08:09:05.148Z,9.97
2022-12-26T08:10:07.428Z,8.70
2022-12-26T08:11:14.034Z,11.90
2022-12-26T08:12:15.789Z,10.00
2022-12-26T08:13:17.532Z,9.40
2022-12-26T08:14:19.229Z,7.90
2022-12-26T08:15:20.964Z,9.33
2022-12-26T08:16:22.875Z,10.23
2022-12-26T08:17:24.779Z,8.60
2022-12-26T08:18:26.801Z,8.90
2022-12-26T08:19:28.584Z,10.13
2022-12-26T08:20:30.347Z,8.50
2022-12-26T08:21:32.126Z,12.90
2022-12-26T08:22:33.933Z,9.27
2022-12-26T08:23:35.768Z,6.63
2022-12-26T08:24:37.577Z,7.70
2022-12-26T08:25:39.609Z,13.70
2022-12-26T08:26:41.363Z,8.68
2022-12-26T08:27:43.114Z,11.15
2022-12-26T08:28:44.861Z,9.03
2022-12-26T08:29:48.343Z,9.43
2022-12-26T08:30:50.289Z,8.27
2022-12-26T08:31:53.032Z,9.20
2022-12-26T08:32:54.821Z,9.57
2022-12-26T08:33:57.608Z,7.97
2022-12-26T08:34:59.439Z,9.60
2022-12-26T08:36:10.075Z,10.67
2022-12-26T08:37:11.782Z,8.60
2022-12-26T08:38:13.440Z,9.47
2022-12-26T08:39:15.188Z,10.48
2022-12-26T08:40:26.696Z,10.13
2022-12-26T08:41:34.611Z,12.63
2022-12-26T08:42:50.062Z,10.27
2022-12-26T08:45:19.584Z,13.82
2022-12-26T08:46:22.423Z,11.67
2022-12-26T08:47:26.629Z,8.57
2022-12-26T08:48:29.070Z,11.17
2022-12-26T08:49:30.749Z,15.00
2022-12-26T08:50:36.567Z,11.97
2022-12-26T08:51:42.645Z,9.47
2022-12-26T08:52:44.398Z,9.20
2022-12-26T08:53:47.047Z,8.53
2022-12-26T08:54:48.791Z,9.37
2022-12-26T08:55:50.488Z,11.33
2022-12-26T08:56:52.544Z,9.20
2022-12-26T08:57:54.252Z,10.33
2022-12-26T08:58:56.091Z,13.70
2022-12-26T08:59:57.843Z,10.60
2022-12-26T09:01:32.164Z,9.73
2022-12-26T09:02:34.104Z,9.03
2022-12-26T09:03:35.957Z,8.57
2022-12-26T09:04:37.709Z,13.47
2022-12-26T09:05:39.518Z,10.43
2022-12-26T09:06:41.836Z,8.97
2022-12-26T09:07:43.560Z,10.60
2022-12-26T09:08:45.351Z,9.00
2022-12-26T09:09:48.045Z,7.27
2022-12-26T09:10:49.757Z,8.80
2022-12-26T09:11:51.519Z,8.63
2022-12-26T09:12:53.194Z,10.40
2022-12-26T09:13:57.593Z,8.70
2022-12-26T09:14:59.314Z,8.93
2022-12-26T09:16:10.996Z,10.57
2022-12-26T09:17:12.877Z,8.20
2022-12-26T09:18:14.689Z,7.85
2022-12-26T09:19:17.695Z,12.73
2022-12-26T09:20:19.499Z,8.63
2022-12-26T09:21:21.201Z,6.87
2022-12-26T09:22:41.338Z,13.80
2022-12-26T09:23:43.778Z,9.30
2022-12-26T09:24:45.592Z,6.97
2022-12-26T09:25:47.332Z,7.33
2022-12-26T09:26:49.063Z,9.50
2022-12-26T09:27:58.783Z,19.10
2022-12-26T09:29:01.231Z,28.50
2022-12-26T09:30:03.097Z,22.08
2022-12-26T09:31:17.365Z,12.00
2022-12-26T09:32:19.128Z,12.23
2022-12-26T09:33:20.804Z,11.37
2022-12-26T09:34:22.555Z,11.33
2022-12-26T09:35:24.320Z,11.97
2022-12-26T09:36:29.059Z,9.80
2022-12-26T09:37:30.797Z,11.93
2022-12-26T09:38:32.714Z,13.23
2022-12-26T09:39:34.594Z,12.53
2022-12-26T09:41:14.766Z,13.53
2022-12-26T09:42:28.369Z,9.27
2022-12-26T09:44:07.064Z,11.33
2022-12-26T09:45:19.758Z,9.98
2022-12-26T09:47:03.363Z,10.53
2022-12-26T09:48:14.095Z,8.30
2022-12-26T09:49:30.400Z,12.67
2022-12-26T09:50:40.981Z,10.32
2022-12-26T09:51:56.309Z,11.40
2022-12-26T09:53:13.836Z,10.10
2022-12-26T09:54:32.142Z,11.70
2022-12-26T09:55:54.345Z,10.57
2022-12-26T09:57:07.326Z,10.57
2022-12-26T09:58:33.952Z,11.23
2022-12-26T09:59:55.899Z,12.57
2022-12-26T10:01:13.099Z,9.43
2022-12-26T10:02:20.422Z,8.93
2022-12-26T10:03:23.873Z,10.85
2022-12-26T10:04:29.826Z,11.23
2022-12-26T10:05:40.260Z,10.15
2022-12-26T10:06:48.483Z,11.57
2022-12-26T10:07:56.432Z,7.50
2022-12-26T10:09:05.689Z,11.10
2022-12-26T10:10:22.537Z,9.87
2022-12-26T10:12:13.461Z,12.53
2022-12-26T10:13:43.527Z,9.37
2022-12-26T10:14:57.256Z,10.07
2022-12-26T10:16:21.612Z,11.57
2022-12-26T10:17:39.964Z,10.67
2022-12-26T10:19:05.963Z,14.67
2022-12-26T10:20:28.464Z,13.43
2022-12-26T10:21:47.973Z,10.27
2022-12-26T10:23:03.702Z,15.10
2022-12-26T10:24:15.872Z,13.18
2022-12-26T10:25:28.857Z,16.10
2022-12-26T10:26:39.889Z,14.68
2022-12-26T10:27:45.108Z,11.17
2022-12-26T10:28:53.706Z,12.57
2022-12-26T10:30:00.375Z,12.07
2022-12-26T10:31:08.959Z,12.93
2022-12-26T10:32:27.500Z,14.63
2022-12-26T10:33:41.588Z,14.27
2022-12-26T10:34:49.223Z,10.80
2022-12-26T10:35:51.139Z,12.90
2022-12-26T10:37:02.340Z,15.50
2022-12-26T10:38:27.911Z,10.77
2022-12-26T10:39:39.819Z,10.60
2022-12-26T10:40:44.958Z,13.48
2022-12-26T10:41:50.859Z,13.97
2022-12-26T10:42:54.802Z,9.23
2022-12-26T10:43:56.560Z,10.40
2022-12-26T10:44:59.368Z,16.17
2022-12-26T10:46:35.102Z,18.00
2022-12-26T10:47:42.076Z,12.63
2022-12-26T10:48:44.896Z,12.90
2022-12-26T10:49:48.184Z,10.23
2022-12-26T10:50:50.240Z,11.07
2022-12-26T10:51:54.393Z,18.17
2022-12-26T10:52:58.416Z,15.27
2022-12-26T10:54:00.197Z,15.45
2022-12-26T10:55:27.955Z,16.37
2022-12-26T10:56:26.502Z,17.95
2022-12-26T10:57:31.940Z,14.67
2022-12-26T10:58:36.518Z,19.58
2022-12-26T10:59:44.928Z,15.33
2022-12-26T11:00:47.101Z,13.57
2022-12-26T11:01:49.892Z,14.75
2022-12-26T11:03:07.475Z,16.17
2022-12-26T11:04:52.800Z,15.97
2022-12-26T11:06:10.639Z,14.57
2022-12-26T11:07:17.358Z,15.38
2022-12-26T11:08:40.867Z,17.10
2022-12-26T11:09:55.926Z,16.70
2022-12-26T11:11:47.897Z,17.25
2022-12-26T11:12:53.469Z,10.37
2022-12-26T11:14:02.035Z,13.93
2022-12-26T11:15:07.861Z,13.82
2022-12-26T11:16:10.527Z,12.85
2022-12-26T11:17:14.431Z,14.70
2022-12-26T11:18:39.137Z,13.45
2022-12-26T11:19:44.362Z,15.10
2022-12-26T11:20:46.782Z,18.97
2022-12-26T11:21:48.681Z,14.13
2022-12-26T11:22:51.850Z,15.27
2022-12-26T11:24:19.759Z,16.58
2022-12-26T11:25:35.133Z,15.73
2022-12-26T11:26:38.344Z,10.07
2022-12-26T11:27:43.154Z,9.95
2022-12-26T11:28:45.545Z,7.35
2022-12-26T11:29:47.323Z,10.63
2022-12-26T11:30:49.308Z,9.93
2022-12-26T11:31:56.314Z,6.97
2022-12-26T11:33:27.333Z,10.73
2022-12-26T11:34:37.412Z,7.90
2022-12-26T11:35:48.517Z,6.68
2022-12-26T11:36:51.451Z,11.15
2022-12-26T11:37:57.083Z,8.07
2022-12-26T11:39:16.015Z,7.82
2022-12-26T11:40:39.118Z,8.65
2022-12-26T11:41:42.362Z,10.43
2022-12-26T11:42:54.364Z,5.88
2022-12-26T11:44:13.141Z,7.65
2022-12-26T11:45:22.960Z,9.23
2022-12-26T11:46:35.070Z,10.23
2022-12-26T11:47:37.031Z,7.78
2022-12-26T11:48:39.371Z,6.93
2022-12-26T11:49:46.313Z,7.22
2022-12-26T11:50:48.215Z,7.03
2022-12-26T11:51:55.641Z,10.52
2022-12-26T11:53:00.689Z,8.25
2022-12-26T11:54:26.164Z,10.48
2022-12-26T11:55:33.451Z,7.13
2022-12-26T11:56:35.271Z,8.20
2022-12-26T11:57:37.115Z,7.55
2022-12-26T11:58:38.876Z,9.13
2022-12-26T11:59:40.816Z,10.88
2022-12-26T12:00:54.310Z,8.23
2022-12-26T12:02:30.687Z,7.13
2022-12-26T12:03:48.944Z,8.48
2022-12-26T12:04:54.682Z,6.68
2022-12-26T12:06:14.425Z,6.70
2022-12-26T12:07:37.228Z,7.95
2022-12-26T12:09:19.141Z,6.50
2022-12-26T12:10:47.864Z,6.47
2022-12-26T12:12:21.811Z,6.80
2022-12-26T12:13:38.076Z,5.72
2022-12-26T12:15:05.544Z,6.78
2022-12-26T12:16:41.052Z,6.70
2022-12-26T12:18:05.429Z,6.17
2022-12-26T12:19:20.680Z,9.02
2022-12-26T12:20:48.808Z,8.43
2022-12-26T12:22:32.517Z,6.57
2022-12-26T12:23:47.259Z,9.43
2022-12-26T12:25:04.141Z,7.90
2022-12-26T12:26:55.817Z,8.77
2022-12-26T12:28:18.236Z,8.20
2022-12-26T12:29:25.678Z,8.82
2022-12-26T12:30:49.707Z,6.68
2022-12-26T12:32:10.450Z,9.43
2022-12-26T12:33:30.895Z,5.32
2022-12-26T12:34:47.615Z,8.82
2022-12-26T12:36:17.032Z,6.07
2022-12-26T12:37:24.797Z,6.43
2022-12-26T12:38:29.250Z,3.75
2022-12-26T12:39:46.220Z,8.13
2022-12-26T12:41:06.668Z,7.60
2022-12-26T12:42:31.233Z,7.00
2022-12-26T12:43:54.641Z,5.45
2022-12-26T12:45:27.562Z,7.75
2022-12-26T12:46:50.532Z,6.30
2022-12-26T12:48:07.486Z,3.90
2022-12-26T12:49:23.876Z,5.32
2022-12-26T12:50:54.630Z,4.50
2022-12-26T12:52:16.544Z,5.75
2022-12-26T12:53:30.905Z,3.72
2022-12-26T12:54:52.821Z,5.47
2022-12-26T12:56:20.681Z,4.22
2022-12-26T12:57:29.957Z,5.13
2022-12-26T12:58:59.854Z,2.28
2022-12-26T13:00:18.186Z,3.25
2022-12-26T13:01:27.093Z,2.83
2022-12-26T13:03:01.185Z,2.72
2022-12-26T13:04:08.752Z,4.07
2022-12-26T13:05:42.466Z,3.95
2022-12-26T13:06:51.740Z,4.85
2022-12-26T13:08:07.969Z,2.20
2022-12-26T13:09:21.946Z,2.13
2022-12-26T13:10:30.156Z,2.72
2022-12-26T13:11:54.030Z,2.05
2022-12-26T13:12:57.184Z,2.75
2022-12-26T13:14:12.008Z,1.45
2022-12-26T13:15:35.735Z,2.95
2022-12-26T13:16:43.648Z,1.90
2022-12-26T13:17:57.088Z,0.98
2022-12-26T13:19:10.287Z,2.13
2022-12-26T13:20:33.748Z,1.83
2022-12-26T13:21:37.599Z,3.80
2022-12-26T13:23:06.017Z,1.63
2022-12-26T13:24:31.707Z,1.77
2022-12-26T13:25:48.138Z,1.83
2022-12-26T13:27:06.903Z,1.60
2022-12-26T13:28:16.029Z,1.38
2022-12-26T13:29:42.045Z,1.45
2022-12-26T13:30:44.068Z,1.35
2022-12-26T13:31:46.446Z,1.88
2022-12-26T13:32:48.832Z,1.50
2022-12-26T13:33:50.697Z,2.83
2022-12-26T13:34:55.682Z,2.00
2022-12-26T13:36:00.285Z,2.22
2022-12-26T13:37:02.122Z,2.75
2022-12-26T13:38:03.885Z,1.30
2022-12-26T13:39:23.488Z,1.75
2022-12-26T13:40:31.224Z,2.90
2022-12-26T13:41:53.811Z,2.83
2022-12-26T13:43:24.914Z,2.78
2022-12-26T13:44:27.590Z,5.32
2022-12-26T13:45:39.535Z,1.83
2022-12-26T13:46:41.256Z,2.05
2022-12-26T13:47:43.128Z,3.33
2022-12-26T13:48:44.878Z,2.53
2022-12-26T13:49:46.622Z,1.35
2022-12-26T13:50:56.005Z,2.80
2022-12-26T13:52:16.083Z,1.50
2022-12-26T13:53:26.864Z,1.98
2022-12-26T13:54:29.397Z,2.10
2022-12-26T13:55:43.529Z,2.50
2022-12-26T13:56:46.147Z,4.53
2022-12-26T13:58:09.361Z,2.65
2022-12-26T13:59:27.769Z,7.30
2022-12-26T14:00:47.185Z,2.47
2022-12-26T14:02:19.381Z,3.10
2022-12-26T14:03:37.576Z,3.97
2022-12-26T14:05:15.112Z,4.38
2022-12-26T14:06:40.776Z,3.33
2022-12-26T14:07:46.447Z,7.20
2022-12-26T14:09:02.984Z,6.65
2022-12-26T14:10:46.332Z,3.95
2022-12-26T14:12:18.832Z,5.45
2022-12-26T14:13:38.691Z,3.88
2022-12-26T14:14:57.509Z,3.60
2022-12-26T14:16:17.660Z,4.50
2022-12-26T14:17:39.261Z,3.50
2022-12-26T14:18:50.106Z,3.87
2022-12-26T14:20:02.054Z,5.78
2022-12-26T14:21:55.405Z,3.35
2022-12-26T14:23:38.329Z,3.50
2022-12-26T14:24:45.817Z,5.03
2022-12-26T14:26:01.928Z,4.35
2022-12-26T14:27:21.854Z,5.27
2022-12-26T14:28:53.450Z,3.70
2022-12-26T14:30:07.416Z,3.70
2022-12-26T14:31:46.855Z,4.17
2022-12-26T14:33:26.045Z,3.20
2022-12-26T14:34:34.834Z,3.03
2022-12-26T14:36:02.652Z,2.78
2022-12-26T14:37:30.501Z,5.53
2022-12-26T14:38:55.219Z,6.22
2022-12-26T14:40:35.197Z,4.93
2022-12-26T14:42:27.034Z,4.05
2022-12-26T14:43:41.773Z,9.27
2022-12-26T14:44:44.199Z,3.92
2022-12-26T14:45:53.310Z,3.42
2022-12-26T14:46:59.187Z,5.78
2022-12-26T14:48:01.202Z,4.90
2022-12-26T14:49:35.439Z,3.58
2022-12-26T14:50:44.245Z,13.93
2022-12-26T14:51:46.217Z,15.43
2022-12-26T14:52:49.064Z,5.63
2022-12-26T14:54:16.987Z,4.35
2022-12-26T14:55:45.675Z,6.07
2022-12-26T14:56:48.141Z,4.20
2022-12-26T14:57:50.177Z,4.78
2022-12-26T14:59:29.739Z,11.83
2022-12-26T15:00:33.511Z,12.55
2022-12-26T15:01:35.258Z,4.25
2022-12-26T15:02:39.917Z,5.30
2022-12-26T15:04:05.463Z,3.90
2022-12-26T15:05:36.896Z,4.93
2022-12-26T15:07:23.249Z,6.00
2022-12-26T15:08:49.016Z,3.88
2022-12-26T15:09:56.929Z,4.03
2022-12-26T15:11:32.078Z,5.67
2022-12-26T15:12:59.349Z,4.87
2022-12-26T15:14:32.123Z,5.75
2022-12-26T15:15:55.289Z,3.92
2022-12-26T15:17:05.526Z,3.40
2022-12-26T15:18:22.058Z,2.47
2022-12-26T15:20:09.156Z,3.15
2022-12-26T15:21:31.756Z,2.10
2022-12-26T15:22:51.290Z,3.40
2022-12-26T15:23:58.920Z,2.03
2022-12-26T15:25:20.243Z,2.40
2022-12-26T15:26:48.048Z,2.90
2022-12-26T15:27:59.393Z,4.38
2022-12-26T15:29:14.545Z,1.70
2022-12-26T15:30:36.843Z,3.40
2022-12-26T15:31:46.817Z,2.25
2022-12-26T15:33:18.114Z,2.65
2022-12-26T15:34:35.614Z,3.85
2022-12-26T15:36:15.395Z,4.55
2022-12-26T15:37:17.294Z,3.87
2022-12-26T15:38:21.763Z,3.97
2022-12-26T15:39:57.503Z,1.75
2022-12-26T15:41:09.317Z,1.87
2022-12-26T15:42:36.302Z,1.90
2022-12-26T15:44:01.115Z,2.17
2022-12-26T15:45:09.026Z,2.67
2022-12-26T15:46:16.225Z,2.97